sensor_id;sensor_type;location;lat;lon;timestamp;pressure;altitude;pressure_sealevel;temperature;humidity
250;BME280;109;19.806;-70.704;2023-04-16T00:00:40;101550.31;;;25.09;63.47
250;BME280;109;19.806;-70.704;2023-04-16T00:03:07;101548.16;;;25.17;63.61
250;BME280;109;19.806;-70.704;2023-04-16T00:05:33;101534.09;;;25.12;64.12
250;BME280;109;19.806;-70.704;2023-04-16T00:08:00;101545.03;;;25.07;63.85
250;BME280;109;19.806;-70.704;2023-04-16T00:10:26;101536.13;;;25.07;63.45
250;BME280;109;19.806;-70.704;2023-04-16T00:12:53;101546.44;;;25.16;63.26
250;BME280;109;19.806;-70.704;2023-04-16T00:15:19;101545.34;;;25.00;63.67
250;BME280;109;19.806;-70.704;2023-04-16T00:17:46;101545.03;;;25.07;64.00
250;BME280;109;19.806;-70.704;2023-04-16T00:20:12;101549.16;;;25.15;63.63
250;BME280;109;19.806;-70.704;2023-04-16T00:22:39;101548.41;;;25.11;64.28
250;BME280;109;19.806;-70.704;2023-04-16T00:25:05;101555.75;;;25.07;64.23
250;BME280;109;19.806;-70.704;2023-04-16T00:27:32;101550.56;;;25.23;64.22
250;BME280;109;19.806;-70.704;2023-04-16T00:29:58;101561.28;;;25.03;63.59
250;BME280;109;19.806;-70.704;2023-04-16T00:32:25;101562.09;;;25.05;63.92
250;BME280;109;19.806;-70.704;2023-04-16T00:34:51;101561.09;;;24.86;63.29
250;BME280;109;19.806;-70.704;2023-04-16T00:37:18;101565.75;;;25.02;63.70
250;BME280;109;19.806;-70.704;2023-04-16T00:39:44;101568.97;;;24.90;63.72
250;BME280;109;19.806;-70.704;2023-04-16T00:42:11;101572.44;;;24.92;64.13
250;BME280;109;19.806;-70.704;2023-04-16T00:44:37;101573.97;;;24.98;63.64
250;BME280;109;19.806;-70.704;2023-04-16T00:47:04;101574.25;;;24.92;64.14
250;BME280;109;19.806;-70.704;2023-04-16T00:49:32;101580.47;;;24.92;63.95
250;BME280;109;19.806;-70.704;2023-04-16T00:51:59;101585.50;;;25.00;63.65
250;BME280;109;19.806;-70.704;2023-04-16T00:54:28;101586.06;;;25.08;63.35
250;BME280;109;19.806;-70.704;2023-04-16T00:56:55;101585.66;;;24.97;64.15
250;BME280;109;19.806;-70.704;2023-04-16T00:59:23;101585.03;;;25.10;63.62
250;BME280;109;19.806;-70.704;2023-04-16T01:01:49;101589.88;;;25.02;64.21
250;BME280;109;19.806;-70.704;2023-04-16T01:04:16;101590.56;;;25.07;64.04
250;BME280;109;19.806;-70.704;2023-04-16T01:06:42;101610.25;;;25.27;63.87
250;BME280;109;19.806;-70.704;2023-04-16T01:09:09;101607.44;;;25.09;63.65
250;BME280;109;19.806;-70.704;2023-04-16T01:11:37;101609.25;;;25.09;63.57
250;BME280;109;19.806;-70.704;2023-04-16T01:14:03;101605.25;;;25.19;63.74
250;BME280;109;19.806;-70.704;2023-04-16T01:16:37;101611.59;;;25.17;63.79
250;BME280;109;19.806;-70.704;2023-04-16T01:19:03;101618.94;;;25.11;63.44
250;BME280;109;19.806;-70.704;2023-04-16T01:21:36;101613.94;;;25.24;63.41
250;BME280;109;19.806;-70.704;2023-04-16T01:24:03;101627.06;;;25.32;63.15
250;BME280;109;19.806;-70.704;2023-04-16T01:26:36;101629.22;;;25.44;62.98
250;BME280;109;19.806;-70.704;2023-04-16T01:29:03;101626.06;;;25.34;63.00
250;BME280;109;19.806;-70.704;2023-04-16T01:31:36;101629.81;;;25.29;63.00
250;BME280;109;19.806;-70.704;2023-04-16T01:34:07;101626.13;;;25.53;62.87
250;BME280;109;19.806;-70.704;2023-04-16T01:36:40;101639.34;;;25.58;62.39
250;BME280;109;19.806;-70.704;2023-04-16T01:39:07;101644.56;;;25.61;63.03
250;BME280;109;19.806;-70.704;2023-04-16T01:41:42;101637.47;;;25.60;62.55
250;BME280;109;19.806;-70.704;2023-04-16T01:44:08;101628.63;;;25.58;62.96
250;BME280;109;19.806;-70.704;2023-04-16T01:46:42;101628.81;;;25.53;62.72
250;BME280;109;19.806;-70.704;2023-04-16T01:49:09;101633.28;;;25.53;63.13
250;BME280;109;19.806;-70.704;2023-04-16T01:51:43;101645.28;;;25.64;62.57
250;BME280;109;19.806;-70.704;2023-04-16T01:54:31;101650.25;;;25.53;62.31
250;BME280;109;19.806;-70.704;2023-04-16T01:57:04;101649.50;;;25.50;62.34
250;BME280;109;19.806;-70.704;2023-04-16T01:59:31;101651.06;;;25.55;62.86
250;BME280;109;19.806;-70.704;2023-04-16T02:02:08;101645.75;;;25.54;62.86
250;BME280;109;19.806;-70.704;2023-04-16T02:04:45;101644.34;;;25.45;62.76
250;BME280;109;19.806;-70.704;2023-04-16T02:07:11;101659.56;;;25.44;63.00
250;BME280;109;19.806;-70.704;2023-04-16T02:09:44;101656.19;;;25.39;63.04
250;BME280;109;19.806;-70.704;2023-04-16T02:12:11;101650.78;;;25.19;62.49
250;BME280;109;19.806;-70.704;2023-04-16T02:14:43;101653.19;;;25.25;62.49
250;BME280;109;19.806;-70.704;2023-04-16T02:17:12;101645.00;;;25.08;62.48
250;BME280;109;19.806;-70.704;2023-04-16T02:19:49;101646.88;;;25.06;62.47
250;BME280;109;19.806;-70.704;2023-04-16T02:22:16;101653.69;;;25.13;62.76
250;BME280;109;19.806;-70.704;2023-04-16T02:24:51;101659.06;;;25.13;62.42
250;BME280;109;19.806;-70.704;2023-04-16T02:27:18;101664.25;;;25.18;62.11
250;BME280;109;19.806;-70.704;2023-04-16T02:30:05;101660.75;;;25.16;62.14
250;BME280;109;19.806;-70.704;2023-04-16T02:32:39;101664.41;;;25.13;62.23
250;BME280;109;19.806;-70.704;2023-04-16T02:35:06;101668.97;;;25.11;62.28
250;BME280;109;19.806;-70.704;2023-04-16T02:37:39;101659.94;;;25.14;62.06
250;BME280;109;19.806;-70.704;2023-04-16T02:40:06;101662.09;;;25.26;62.10
250;BME280;109;19.806;-70.704;2023-04-16T02:42:39;101660.16;;;25.31;61.85
250;BME280;109;19.806;-70.704;2023-04-16T02:45:07;101664.34;;;25.36;61.86
250;BME280;109;19.806;-70.704;2023-04-16T02:47:40;101659.16;;;25.33;61.97
250;BME280;109;19.806;-70.704;2023-04-16T02:50:07;101659.56;;;25.23;61.74
250;BME280;109;19.806;-70.704;2023-04-16T02:52:40;101656.81;;;25.24;61.91
250;BME280;109;19.806;-70.704;2023-04-16T02:55:27;101671.34;;;25.19;61.77
250;BME280;109;19.806;-70.704;2023-04-16T02:58:00;101674.91;;;25.19;61.93
250;BME280;109;19.806;-70.704;2023-04-16T03:00:27;101675.81;;;25.18;61.66
250;BME280;109;19.806;-70.704;2023-04-16T03:02:59;101666.16;;;25.14;61.62
250;BME280;109;19.806;-70.704;2023-04-16T03:05:26;101666.09;;;25.16;61.75
250;BME280;109;19.806;-70.704;2023-04-16T03:07:59;101670.72;;;25.12;62.00
250;BME280;109;19.806;-70.704;2023-04-16T03:10:26;101671.63;;;25.11;62.02
250;BME280;109;19.806;-70.704;2023-04-16T03:13:00;101671.97;;;25.03;62.15
250;BME280;109;19.806;-70.704;2023-04-16T03:15:34;101674.81;;;24.99;62.33
250;BME280;109;19.806;-70.704;2023-04-16T03:18:07;101674.81;;;24.99;62.30
250;BME280;109;19.806;-70.704;2023-04-16T03:20:34;101670.41;;;24.98;62.88
250;BME280;109;19.806;-70.704;2023-04-16T03:23:08;101666.94;;;24.96;63.09
250;BME280;109;19.806;-70.704;2023-04-16T03:25:34;101648.41;;;24.90;63.02
250;BME280;109;19.806;-70.704;2023-04-16T03:28:09;101659.78;;;24.96;62.69
250;BME280;109;19.806;-70.704;2023-04-16T03:30:36;101645.63;;;24.93;62.90
250;BME280;109;19.806;-70.704;2023-04-16T03:33:09;101646.50;;;24.93;62.77
250;BME280;109;19.806;-70.704;2023-04-16T03:35:36;101650.22;;;24.89;62.93
250;BME280;109;19.806;-70.704;2023-04-16T03:38:09;101643.81;;;24.93;62.90
250;BME280;109;19.806;-70.704;2023-04-16T03:40:37;101647.09;;;25.00;62.72
250;BME280;109;19.806;-70.704;2023-04-16T03:43:10;101646.06;;;25.04;62.23
250;BME280;109;19.806;-70.704;2023-04-16T03:45:43;101645.00;;;25.08;62.69
250;BME280;109;19.806;-70.704;2023-04-16T03:48:19;101644.25;;;25.04;62.49
250;BME280;109;19.806;-70.704;2023-04-16T03:50:46;101644.63;;;24.95;62.14
250;BME280;109;19.806;-70.704;2023-04-16T03:53:27;101652.28;;;24.83;62.56
250;BME280;109;19.806;-70.704;2023-04-16T03:56:06;101644.63;;;24.95;62.69
250;BME280;109;19.806;-70.704;2023-04-16T03:58:33;101645.34;;;24.99;62.09
250;BME280;109;19.806;-70.704;2023-04-16T04:01:07;101649.72;;;25.01;62.21
250;BME280;109;19.806;-70.704;2023-04-16T04:03:36;101632.38;;;25.10;62.62
250;BME280;109;19.806;-70.704;2023-04-16T04:06:09;101627.19;;;25.07;61.80
250;BME280;109;19.806;-70.704;2023-04-16T04:08:36;101631.91;;;25.00;62.63
250;BME280;109;19.806;-70.704;2023-04-16T04:11:09;101636.03;;;25.09;62.03
250;BME280;109;19.806;-70.704;2023-04-16T04:13:37;101627.25;;;25.05;62.51
250;BME280;109;19.806;-70.704;2023-04-16T04:16:17;101618.72;;;24.96;62.34
250;BME280;109;19.806;-70.704;2023-04-16T04:18:50;101621.69;;;24.88;62.31
250;BME280;109;19.806;-70.704;2023-04-16T04:21:17;101615.75;;;24.82;62.77
250;BME280;109;19.806;-70.704;2023-04-16T04:23:50;101619.97;;;24.87;62.56
250;BME280;109;19.806;-70.704;2023-04-16T04:26:17;101614.41;;;24.92;62.95
250;BME280;109;19.806;-70.704;2023-04-16T04:28:49;101615.59;;;24.85;63.22
250;BME280;109;19.806;-70.704;2023-04-16T04:31:17;101615.59;;;24.85;63.11
250;BME280;109;19.806;-70.704;2023-04-16T04:33:50;101616.41;;;24.87;62.74
250;BME280;109;19.806;-70.704;2023-04-16T04:36:17;101615.59;;;24.85;62.99
250;BME280;109;19.806;-70.704;2023-04-16T04:38:51;101625.38;;;24.86;62.89
250;BME280;109;19.806;-70.704;2023-04-16T04:41:19;101611.97;;;24.86;62.78
250;BME280;109;19.806;-70.704;2023-04-16T04:43:53;101610.22;;;24.85;62.96
250;BME280;109;19.806;-70.704;2023-04-16T04:46:20;101601.16;;;24.89;63.26
250;BME280;109;19.806;-70.704;2023-04-16T04:48:53;101590.31;;;24.92;62.90
250;BME280;109;19.806;-70.704;2023-04-16T04:51:20;101583.91;;;24.96;62.83
250;BME280;109;19.806;-70.704;2023-04-16T04:54:01;101577.88;;;24.91;63.15
250;BME280;109;19.806;-70.704;2023-04-16T04:56:42;101575.38;;;24.86;63.07
250;BME280;109;19.806;-70.704;2023-04-16T04:59:19;101575.00;;;24.73;63.25
250;BME280;109;19.806;-70.704;2023-04-16T05:01:47;101563.66;;;24.89;63.12
250;BME280;109;19.806;-70.704;2023-04-16T05:04:19;101557.66;;;24.84;63.59
250;BME280;109;19.806;-70.704;2023-04-16T05:06:46;101548.53;;;24.88;63.73
250;BME280;109;19.806;-70.704;2023-04-16T05:09:18;101543.16;;;24.88;63.25
250;BME280;109;19.806;-70.704;2023-04-16T05:11:45;101533.41;;;24.87;63.57
250;BME280;109;19.806;-70.704;2023-04-16T05:14:17;101526.50;;;24.81;63.29
250;BME280;109;19.806;-70.704;2023-04-16T05:16:51;101535.41;;;24.82;63.34
250;BME280;109;19.806;-70.704;2023-04-16T05:19:24;101524.72;;;24.82;63.17
250;BME280;109;19.806;-70.704;2023-04-16T05:21:51;101519.28;;;24.83;63.00
250;BME280;109;19.806;-70.704;2023-04-16T05:24:23;101513.13;;;24.81;63.30
250;BME280;109;19.806;-70.704;2023-04-16T05:26:50;101507.81;;;24.80;63.43
250;BME280;109;19.806;-70.704;2023-04-16T05:29:23;101506.91;;;24.81;63.41
250;BME280;109;19.806;-70.704;2023-04-16T05:31:50;101504.00;;;24.85;63.40
250;BME280;109;19.806;-70.704;2023-04-16T05:34:23;101506.09;;;24.79;63.31
250;BME280;109;19.806;-70.704;2023-04-16T05:36:50;101499.13;;;24.73;63.37
250;BME280;109;19.806;-70.704;2023-04-16T05:39:23;101494.31;;;24.83;63.46
250;BME280;109;19.806;-70.704;2023-04-16T05:41:50;101492.00;;;24.73;63.44
250;BME280;109;19.806;-70.704;2023-04-16T05:44:24;101484.00;;;24.72;63.56
250;BME280;109;19.806;-70.704;2023-04-16T05:46:51;101486.47;;;24.78;63.53
250;BME280;109;19.806;-70.704;2023-04-16T05:49:24;101483.13;;;24.71;63.62
250;BME280;109;19.806;-70.704;2023-04-16T05:51:51;101475.00;;;24.74;63.36
250;BME280;109;19.806;-70.704;2023-04-16T05:54:31;101469.66;;;24.74;63.51
250;BME280;109;19.806;-70.704;2023-04-16T05:57:11;101472.38;;;24.73;63.24
250;BME280;109;19.806;-70.704;2023-04-16T05:59:38;101461.56;;;24.76;63.14
250;BME280;109;19.806;-70.704;2023-04-16T06:02:10;101466.13;;;24.72;63.31
250;BME280;109;19.806;-70.704;2023-04-16T06:04:37;101463.75;;;24.66;63.04
250;BME280;109;19.806;-70.704;2023-04-16T06:07:09;101453.03;;;24.66;63.38
250;BME280;109;19.806;-70.704;2023-04-16T06:09:36;101440.47;;;24.68;63.30
250;BME280;109;19.806;-70.704;2023-04-16T06:12:08;101439.53;;;24.69;63.05
250;BME280;109;19.806;-70.704;2023-04-16T06:14:35;101437.78;;;24.68;63.07
250;BME280;109;19.806;-70.704;2023-04-16T06:17:16;101437.84;;;24.67;63.31
250;BME280;109;19.806;-70.704;2023-04-16T06:19:48;101435.03;;;24.70;63.24
250;BME280;109;19.806;-70.704;2023-04-16T06:22:15;101431.44;;;24.71;63.20
250;BME280;109;19.806;-70.704;2023-04-16T06:24:47;101421.47;;;24.74;63.11
250;BME280;109;19.806;-70.704;2023-04-16T06:27:14;101415.75;;;24.62;63.36
250;BME280;109;19.806;-70.704;2023-04-16T06:29:47;101418.41;;;24.62;63.11
250;BME280;109;19.806;-70.704;2023-04-16T06:32:14;101425.34;;;24.67;63.32
250;BME280;109;19.806;-70.704;2023-04-16T06:34:48;101404.91;;;24.65;63.37
250;BME280;109;19.806;-70.704;2023-04-16T06:37:15;101401.88;;;24.72;62.92
250;BME280;109;19.806;-70.704;2023-04-16T06:39:48;101396.53;;;24.72;63.33
250;BME280;109;19.806;-70.704;2023-04-16T06:42:15;101388.47;;;24.74;63.18
250;BME280;109;19.806;-70.704;2023-04-16T06:44:47;101388.50;;;24.72;62.95
250;BME280;109;19.806;-70.704;2023-04-16T06:47:15;101381.06;;;24.59;63.56
250;BME280;109;19.806;-70.704;2023-04-16T06:49:47;101375.72;;;24.59;63.40
250;BME280;109;19.806;-70.704;2023-04-16T06:52:14;101376.06;;;24.51;63.44
250;BME280;109;19.806;-70.704;2023-04-16T06:54:54;101366.97;;;24.55;63.66
250;BME280;109;19.806;-70.704;2023-04-16T06:57:33;101364.16;;;24.58;63.34
250;BME280;109;19.806;-70.704;2023-04-16T07:00:00;101359.66;;;24.59;63.33
250;BME280;109;19.806;-70.704;2023-04-16T07:02:33;101358.78;;;24.58;63.33
250;BME280;109;19.806;-70.704;2023-04-16T07:05:00;101353.31;;;24.61;63.25
250;BME280;109;19.806;-70.704;2023-04-16T07:07:33;101349.31;;;24.51;63.46
250;BME280;109;19.806;-70.704;2023-04-16T07:10:00;101341.22;;;24.53;63.50
250;BME280;109;19.806;-70.704;2023-04-16T07:12:32;101341.22;;;24.53;63.47
250;BME280;109;19.806;-70.704;2023-04-16T07:14:59;101333.72;;;24.61;63.31
250;BME280;109;19.806;-70.704;2023-04-16T07:17:39;101333.25;;;24.51;63.44
250;BME280;109;19.806;-70.704;2023-04-16T07:20:12;101331.50;;;24.50;63.80
250;BME280;109;19.806;-70.704;2023-04-16T07:22:39;101328.56;;;24.36;63.71
250;BME280;109;19.806;-70.704;2023-04-16T07:25:11;101319.88;;;24.31;63.82
250;BME280;109;19.806;-70.704;2023-04-16T07:27:38;101316.84;;;24.38;63.78
250;BME280;109;19.806;-70.704;2023-04-16T07:30:10;101317.25;;;24.29;63.93
250;BME280;109;19.806;-70.704;2023-04-16T07:32:37;101309.19;;;24.31;64.01
250;BME280;109;19.806;-70.704;2023-04-16T07:35:10;101306.34;;;24.34;63.76
250;BME280;109;19.806;-70.704;2023-04-16T07:37:37;101298.31;;;24.34;63.70
250;BME280;109;19.806;-70.704;2023-04-16T07:40:09;101292.19;;;24.32;63.65
250;BME280;109;19.806;-70.704;2023-04-16T07:42:36;101283.13;;;24.34;63.34
250;BME280;109;19.806;-70.704;2023-04-16T07:45:10;101285.00;;;24.32;63.28
250;BME280;109;19.806;-70.704;2023-04-16T07:47:44;101291.97;;;24.16;63.18
250;BME280;109;19.806;-70.704;2023-04-16T07:50:17;101284.84;;;24.15;63.28
250;BME280;109;19.806;-70.704;2023-04-16T07:52:45;101281.31;;;24.15;63.17
250;BME280;109;19.806;-70.704;2023-04-16T07:55:18;101295.38;;;24.20;63.47
250;BME280;109;19.806;-70.704;2023-04-16T07:57:58;101288.38;;;24.17;63.18
250;BME280;109;19.806;-70.704;2023-04-16T08:00:25;101297.03;;;24.22;63.17
250;BME280;109;19.806;-70.704;2023-04-16T08:02:58;101295.56;;;24.15;63.00
250;BME280;109;19.806;-70.704;2023-04-16T08:05:25;101302.34;;;24.24;63.07
250;BME280;109;19.806;-70.704;2023-04-16T08:07:58;101309.78;;;24.17;62.89
250;BME280;109;19.806;-70.704;2023-04-16T08:10:25;101314.34;;;24.14;63.02
250;BME280;109;19.806;-70.704;2023-04-16T08:13:01;101324.34;;;24.09;63.10
250;BME280;109;19.806;-70.704;2023-04-16T08:15:27;101328.75;;;24.10;62.91
250;BME280;109;19.806;-70.704;2023-04-16T08:18:00;101326.91;;;24.12;62.90
250;BME280;109;19.806;-70.704;2023-04-16T08:20:27;101333.38;;;24.06;62.80
250;BME280;109;19.806;-70.704;2023-04-16T08:23:00;101330.78;;;24.04;63.10
250;BME280;109;19.806;-70.704;2023-04-16T08:25:27;101333.38;;;24.06;63.05
250;BME280;109;19.806;-70.704;2023-04-16T08:28:00;101333.50;;;24.03;63.08
250;BME280;109;19.806;-70.704;2023-04-16T08:30:27;101335.03;;;24.09;63.25
250;BME280;109;19.806;-70.704;2023-04-16T08:33:00;101329.56;;;24.12;62.95
250;BME280;109;19.806;-70.704;2023-04-16T08:35:27;101343.00;;;24.10;62.69
250;BME280;109;19.806;-70.704;2023-04-16T08:38:02;101338.53;;;24.11;62.88
250;BME280;109;19.806;-70.704;2023-04-16T08:40:30;101343.66;;;24.17;62.58
250;BME280;109;19.806;-70.704;2023-04-16T08:43:07;101345.50;;;24.15;62.52
250;BME280;109;19.806;-70.704;2023-04-16T08:45:50;101353.53;;;24.15;62.60
250;BME280;109;19.806;-70.704;2023-04-16T08:48:29;101349.09;;;24.14;62.13
250;BME280;109;19.806;-70.704;2023-04-16T08:51:07;101359.09;;;24.09;62.23
250;BME280;109;19.806;-70.704;2023-04-16T08:53:51;101354.56;;;24.11;62.38
250;BME280;109;19.806;-70.704;2023-04-16T08:56:23;101366.91;;;24.15;62.31
250;BME280;109;19.806;-70.704;2023-04-16T08:59:04;101365.09;;;24.15;62.25
250;BME280;109;19.806;-70.704;2023-04-16T09:01:34;101360.25;;;24.25;62.17
250;BME280;109;19.806;-70.704;2023-04-16T09:04:08;101363.25;;;24.17;62.23
250;BME280;109;19.806;-70.704;2023-04-16T09:06:35;101363.25;;;24.17;62.04
250;BME280;109;19.806;-70.704;2023-04-16T09:09:10;101374.97;;;24.13;61.84
250;BME280;109;19.806;-70.704;2023-04-16T09:11:37;101376.66;;;24.16;61.95
250;BME280;109;19.806;-70.704;2023-04-16T09:14:12;101387.28;;;24.19;61.89
250;BME280;109;19.806;-70.704;2023-04-16T09:16:38;101391.81;;;24.17;61.83
250;BME280;109;19.806;-70.704;2023-04-16T09:19:15;101392.72;;;24.16;61.76
250;BME280;109;19.806;-70.704;2023-04-16T09:21:45;101391.84;;;24.15;61.54
250;BME280;109;19.806;-70.704;2023-04-16T09:24:18;101400.50;;;24.22;61.45
250;BME280;109;19.806;-70.704;2023-04-16T09:26:45;101402.19;;;24.24;61.30
250;BME280;109;19.806;-70.704;2023-04-16T09:29:37;101384.44;;;24.22;61.30
250;BME280;109;19.806;-70.704;2023-04-16T09:32:11;101390.66;;;24.22;61.30
250;BME280;109;19.806;-70.704;2023-04-16T09:34:58;101393.28;;;24.24;61.41
250;BME280;109;19.806;-70.704;2023-04-16T09:37:32;101388.91;;;24.21;61.27
250;BME280;109;19.806;-70.704;2023-04-16T09:40:00;101392.78;;;24.14;61.40
250;BME280;109;19.806;-70.704;2023-04-16T09:42:35;101393.63;;;24.15;61.52
250;BME280;109;19.806;-70.704;2023-04-16T09:45:02;101401.47;;;24.19;61.37
250;BME280;109;19.806;-70.704;2023-04-16T09:47:43;101401.56;;;24.18;61.69
250;BME280;109;19.806;-70.704;2023-04-16T09:50:18;101399.78;;;24.18;61.38
250;BME280;109;19.806;-70.704;2023-04-16T09:52:48;101396.44;;;24.12;61.54
250;BME280;109;19.806;-70.704;2023-04-16T09:55:27;101403.53;;;24.13;61.44
250;BME280;109;19.806;-70.704;2023-04-16T09:58:06;101406.25;;;24.11;61.59
250;BME280;109;19.806;-70.704;2023-04-16T10:00:33;101408.81;;;24.14;61.69
250;BME280;109;19.806;-70.704;2023-04-16T10:03:05;101417.88;;;24.10;61.83
250;BME280;109;19.806;-70.704;2023-04-16T10:05:32;101417.88;;;24.10;61.69
250;BME280;109;19.806;-70.704;2023-04-16T10:08:12;101418.81;;;24.09;61.48
250;BME280;109;19.806;-70.704;2023-04-16T10:10:45;101424.97;;;24.11;61.52
250;BME280;109;19.806;-70.704;2023-04-16T10:13:12;101427.00;;;24.06;61.76
250;BME280;109;19.806;-70.704;2023-04-16T10:15:56;101425.03;;;24.10;61.85
250;BME280;109;19.806;-70.704;2023-04-16T10:18:30;101442.06;;;24.07;61.95
250;BME280;109;19.806;-70.704;2023-04-16T10:20:56;101441.91;;;24.12;61.72
250;BME280;109;19.806;-70.704;2023-04-16T10:23:31;101449.97;;;24.10;61.82
250;BME280;109;19.806;-70.704;2023-04-16T10:26:01;101450.03;;;24.09;61.86
250;BME280;109;19.806;-70.704;2023-04-16T10:28:34;101449.22;;;24.06;61.77
250;BME280;109;19.806;-70.704;2023-04-16T10:33:49;101450.41;;;23.99;61.69
250;BME280;109;19.806;-70.704;2023-04-16T10:36:37;101457.44;;;24.02;61.56
250;BME280;109;19.806;-70.704;2023-04-16T10:39:11;101468.03;;;24.05;61.62
250;BME280;109;19.806;-70.704;2023-04-16T10:41:39;101469.94;;;24.01;61.54
250;BME280;109;19.806;-70.704;2023-04-16T10:44:11;101474.38;;;24.02;61.42
250;BME280;109;19.806;-70.704;2023-04-16T10:46:42;101482.34;;;24.04;61.36
250;BME280;109;19.806;-70.704;2023-04-16T10:49:21;101479.44;;;24.09;61.22
250;BME280;109;19.806;-70.704;2023-04-16T10:51:56;101484.81;;;24.09;60.79
250;BME280;109;19.806;-70.704;2023-04-16T10:54:27;101489.09;;;24.13;60.96
250;BME280;109;19.806;-70.704;2023-04-16T10:56:59;101498.59;;;24.21;60.84
250;BME280;109;19.806;-70.704;2023-04-16T10:59:33;101491.59;;;24.19;60.33
250;BME280;109;19.806;-70.704;2023-04-16T11:02:05;101508.63;;;24.16;60.21
250;BME280;109;19.806;-70.704;2023-04-16T11:04:41;101512.50;;;24.31;59.97
250;BME280;109;19.806;-70.704;2023-04-16T11:12:14;101530.78;;;24.63;59.34
250;BME280;109;19.806;-70.704;2023-04-16T11:14:43;101529.66;;;24.69;59.21
250;BME280;109;19.806;-70.704;2023-04-16T11:17:12;101529.50;;;24.72;59.13
250;BME280;109;19.806;-70.704;2023-04-16T11:19:41;101543.16;;;24.88;59.19
250;BME280;109;19.806;-70.704;2023-04-16T11:22:12;101547.13;;;24.79;58.90
250;BME280;109;19.806;-70.704;2023-04-16T11:24:40;101546.72;;;24.66;59.07
250;BME280;109;19.806;-70.704;2023-04-16T11:27:07;101564.72;;;24.85;59.05
250;BME280;109;19.806;-70.704;2023-04-16T11:29:33;101560.97;;;24.89;58.47
250;BME280;109;19.806;-70.704;2023-04-16T11:32:00;101553.78;;;25.11;58.17
250;BME280;109;19.806;-70.704;2023-04-16T11:34:27;101552.09;;;25.30;58.00
250;BME280;109;19.806;-70.704;2023-04-16T11:36:54;101553.81;;;25.52;57.42
250;BME280;109;19.806;-70.704;2023-04-16T11:39:20;101556.19;;;25.78;57.60
250;BME280;109;19.806;-70.704;2023-04-16T11:41:48;101567.78;;;25.99;57.19
250;BME280;109;19.806;-70.704;2023-04-16T11:44:18;101575.28;;;26.11;56.74
250;BME280;109;19.806;-70.704;2023-04-16T11:46:45;101573.38;;;25.94;56.45
250;BME280;109;19.806;-70.704;2023-04-16T11:49:11;101582.22;;;25.96;56.90
250;BME280;109;19.806;-70.704;2023-04-16T11:51:42;101581.84;;;25.85;56.60
250;BME280;109;19.806;-70.704;2023-04-16T11:54:20;101592.56;;;25.85;57.22
250;BME280;109;19.806;-70.704;2023-04-16T11:56:48;101593.13;;;26.12;57.57
250;BME280;109;19.806;-70.704;2023-04-16T11:59:19;101595.22;;;26.24;56.56
250;BME280;109;19.806;-70.704;2023-04-16T12:01:50;101597.78;;;26.46;56.94
250;BME280;109;19.806;-70.704;2023-04-16T12:04:22;101610.44;;;26.24;56.51
250;BME280;109;19.806;-70.704;2023-04-16T12:07:10;101607.75;;;26.24;56.53
250;BME280;109;19.806;-70.704;2023-04-16T12:09:40;101613.63;;;26.32;56.29
250;BME280;109;19.806;-70.704;2023-04-16T12:14:52;101605.16;;;26.78;55.43
250;BME280;109;19.806;-70.704;2023-04-16T12:17:20;101603.91;;;26.67;55.23
250;BME280;109;19.806;-70.704;2023-04-16T12:19:57;101594.63;;;26.74;55.77
250;BME280;109;19.806;-70.704;2023-04-16T12:22:35;101598.25;;;27.09;55.50
250;BME280;109;19.806;-70.704;2023-04-16T12:25:06;101602.84;;;27.07;54.93
250;BME280;109;19.806;-70.704;2023-04-16T12:27:44;101604.00;;;26.65;55.82
250;BME280;109;19.806;-70.704;2023-04-16T12:30:17;101600.47;;;26.82;55.84
250;BME280;109;19.806;-70.704;2023-04-16T12:32:46;101603.63;;;26.92;55.00
250;BME280;109;19.806;-70.704;2023-04-16T12:35:13;101606.00;;;26.98;55.31
250;BME280;109;19.806;-70.704;2023-04-16T12:37:54;101597.50;;;26.88;55.22
250;BME280;109;19.806;-70.704;2023-04-16T12:40:20;101595.91;;;27.20;55.55
250;BME280;109;19.806;-70.704;2023-04-16T12:42:47;101601.69;;;27.47;54.86
250;BME280;109;19.806;-70.704;2023-04-16T12:45:13;101609.19;;;27.75;54.17
250;BME280;109;19.806;-70.704;2023-04-16T12:47:40;101611.34;;;27.68;54.19
250;BME280;109;19.806;-70.704;2023-04-16T12:50:06;101613.47;;;27.62;54.31
250;BME280;109;19.806;-70.704;2023-04-16T12:52:33;101609.19;;;27.75;54.46
250;BME280;109;19.806;-70.704;2023-04-16T12:55:01;101606.94;;;28.00;54.43
250;BME280;109;19.806;-70.704;2023-04-16T12:57:28;101604.88;;;28.05;54.08
250;BME280;109;19.806;-70.704;2023-04-16T12:59:55;101608.81;;;28.31;54.31
250;BME280;109;19.806;-70.704;2023-04-16T13:02:22;101602.97;;;28.56;54.21
250;BME280;109;19.806;-70.704;2023-04-16T13:04:52;101606.94;;;28.65;53.78
250;BME280;109;19.806;-70.704;2023-04-16T13:07:19;101605.91;;;28.51;53.42
250;BME280;109;19.806;-70.704;2023-04-16T13:09:46;101612.50;;;28.77;53.91
250;BME280;109;19.806;-70.704;2023-04-16T13:12:12;101614.06;;;28.81;53.11
250;BME280;109;19.806;-70.704;2023-04-16T13:14:39;101615.72;;;28.84;52.56
250;BME280;109;19.806;-70.704;2023-04-16T13:17:06;101627.38;;;28.84;52.71
250;BME280;109;19.806;-70.704;2023-04-16T13:19:33;101623.03;;;28.66;52.59
250;BME280;109;19.806;-70.704;2023-04-16T13:21:59;101629.91;;;28.56;52.59
250;BME280;109;19.806;-70.704;2023-04-16T13:24:26;101620.78;;;28.25;53.23
250;BME280;109;19.806;-70.704;2023-04-16T13:26:53;101618.78;;;28.13;52.05
250;BME280;109;19.806;-70.704;2023-04-16T13:29:21;101624.72;;;28.20;52.79
250;BME280;109;19.806;-70.704;2023-04-16T13:31:48;101636.44;;;28.35;53.23
250;BME280;109;19.806;-70.704;2023-04-16T13:34:14;101639.13;;;28.35;54.63
250;BME280;109;19.806;-70.704;2023-04-16T13:36:41;101627.59;;;28.33;53.56
250;BME280;109;19.806;-70.704;2023-04-16T13:39:07;101624.69;;;28.36;50.76